Time;durP1;ratioP1;P1;durP2;ratioP2;P2;SDS_P1;SDS_P2;PMS_P1;PMS_P2;Temp;Humidity;BMP_temperature;BMP_pressure;BME280_temperature;BME280_humidity;BME280_pressure;Samples;Min_cycle;Max_cycle;Signal;HPM_P1;HPM_P2
2022/12/28 00:00:53;;;;;;;12.27;2.42;;;;;;;7.01;88.54;100899.03;5105827;28;20092;-77
2022/12/28 00:03:18;;;;;;;15.20;1.70;;;;;;;6.64;88.79;100830.16;5116664;28;20390;-77
2022/12/28 00:05:44;;;;;;;13.80;1.90;;;;;;;6.93;88.49;100872.34;5102366;28;20031;-78
2022/12/28 00:08:10;;;;;;;14.18;1.70;;;;;;;6.97;88.85;100882.50;5111717;28;20028;-77
2022/12/28 00:10:35;;;;;;;20.08;2.33;;;;;;;7.01;88.29;100875.78;5110461;28;20031;-77
2022/12/28 00:13:01;;;;;;;15.93;1.92;;;;;;;6.94;89.30;100874.81;5103368;28;20032;-77
2022/12/28 00:15:26;;;;;;;14.88;2.05;;;;;;;7.00;89.02;100860.75;5098407;28;20086;-78
2022/12/28 00:17:51;;;;;;;12.43;2.20;;;;;;;6.97;88.64;100855.75;5104628;28;20033;-78
2022/12/28 00:20:17;;;;;;;15.93;1.80;;;;;;;7.01;88.40;100859.72;5076653;28;20036;-77
2022/12/28 00:22:43;;;;;;;9.60;1.40;;;;;;;7.04;88.54;100859.38;5092904;28;20047;-77
2022/12/28 00:25:08;;;;;;;9.35;1.50;;;;;;;6.98;88.97;100849.38;5085987;28;20039;-77
2022/12/28 00:27:34;;;;;;;7.38;1.63;;;;;;;6.85;88.87;100830.38;5115075;28;20057;-77
2022/12/28 00:30:02;;;;;;;12.43;1.48;;;;;;;6.95;88.49;100832.84;5104909;28;20028;-79
2022/12/28 00:32:29;;;;;;;8.35;1.33;;;;;;;7.03;88.31;100843.53;5125039;27;20050;-77
2022/12/28 00:34:54;;;;;;;7.90;1.42;;;;;;;6.97;88.55;100837.03;5112472;28;20024;-77
2022/12/28 00:37:20;;;;;;;13.65;1.65;;;;;;;7.00;88.31;100835.84;5084083;28;20126;-77
2022/12/28 00:39:45;;;;;;;8.73;1.17;;;;;;;6.93;88.18;100822.34;5114990;28;20031;-77
2022/12/28 00:42:11;;;;;;;14.43;1.50;;;;;;;6.99;87.64;100829.66;5104578;28;20047;-77
2022/12/28 00:44:36;;;;;;;10.25;1.40;;;;;;;6.80;87.47;100803.34;5107048;28;20038;-77
2022/12/28 00:47:02;;;;;;;8.00;1.08;;;;;;;6.90;87.17;100808.47;5113483;28;20031;-77
2022/12/28 00:49:27;;;;;;;8.95;1.10;;;;;;;7.00;86.65;100823.28;5100685;28;20036;-77
2022/12/28 00:51:53;;;;;;;3.85;1.00;;;;;;;6.67;86.26;100762.97;5113213;28;20432;-77
2022/12/28 00:54:18;;;;;;;5.95;1.15;;;;;;;7.00;85.78;100811.75;5106956;28;20023;-77
2022/12/28 00:56:45;;;;;;;6.95;1.00;;;;;;;6.87;86.04;100796.28;5106033;28;20067;-77
2022/12/28 00:59:11;;;;;;;8.35;1.08;;;;;;;6.95;85.65;100801.56;5114105;28;20035;-77
2022/12/28 01:01:36;;;;;;;4.68;0.93;;;;;;;6.75;85.36;100770.94;5101731;28;20113;-77
2022/12/28 01:04:02;;;;;;;8.55;1.00;;;;;;;6.89;84.74;100783.56;5111700;28;20413;-77
2022/12/28 01:06:28;;;;;;;8.05;1.08;;;;;;;6.90;84.72;100787.09;5090043;28;20028;-77
2022/12/28 01:08:54;;;;;;;7.93;0.85;;;;;;;6.78;84.67;100767.91;5087176;28;20089;-77
2022/12/28 01:11:22;;;;;;;8.02;0.80;;;;;;;6.96;84.55;100791.72;5115005;28;20226;-77
2022/12/28 01:13:48;;;;;;;8.48;1.10;;;;;;;6.80;84.14;100761.38;5100769;28;20019;-77
2022/12/28 01:16:19;;;;;;;5.50;1.00;;;;;;;7.00;84.43;100782.34;5110799;28;20121;-76
2022/12/28 01:18:47;;;;;;;7.13;0.80;;;;;;;7.01;83.87;100789.34;5110106;28;20099;-76
2022/12/28 01:21:15;;;;;;;7.43;1.00;;;;;;;6.80;84.02;100749.84;5101266;28;20040;-77
2022/12/28 01:23:42;;;;;;;8.30;1.00;;;;;;;6.92;84.13;100774.34;5114610;28;20026;-77
2022/12/28 01:26:07;;;;;;;7.60;0.95;;;;;;;6.95;83.68;100776.66;5103930;28;20245;-79
2022/12/28 01:28:33;;;;;;;8.38;1.20;;;;;;;6.93;84.11;100760.81;5107113;28;20080;-77
2022/12/28 01:31:07;;;;;;;7.72;1.08;;;;;;;6.82;83.63;100734.44;5110460;28;20038;-76
2022/12/28 01:33:33;;;;;;;5.47;0.77;;;;;;;6.99;83.41;100760.09;5100319;28;20032;-76
2022/12/28 01:36:06;;;;;;;9.25;1.45;;;;;;;6.94;83.76;100757.13;5111531;28;20034;-77
2022/12/28 01:38:32;;;;;;;11.55;1.08;;;;;;;6.67;84.27;100712.97;5107862;28;20036;-77
2022/12/28 01:41:03;;;;;;;9.60;1.10;;;;;;;6.79;83.97;100734.81;5069149;28;20028;-77
2022/12/28 01:43:46;;;;;;;5.70;0.85;;;;;;;6.74;84.09;100730.00;5114607;28;20444;-77
2022/12/28 01:46:21;;;;;;;8.10;2.15;;;;;;;6.56;84.15;100713.41;5109411;28;20088;-77
2022/12/28 01:48:56;;;;;;;7.30;1.08;;;;;;;6.87;84.25;100744.63;5108391;28;20073;-77
2022/12/28 01:51:22;;;;;;;6.07;0.90;;;;;;;6.68;85.00;100735.19;5100566;28;20036;-77
2022/12/28 01:53:52;;;;;;;7.45;0.95;;;;;;;6.75;84.89;100742.34;5129729;27;20024;-77
2022/12/28 01:56:18;;;;;;;6.90;0.80;;;;;;;6.74;84.80;100738.00;5104839;28;20023;-77
2022/12/28 01:58:45;;;;;;;7.53;0.73;;;;;;;6.20;84.93;100657.78;5104472;28;20031;-76
2022/12/28 02:01:10;;;;;;;10.73;0.80;;;;;;;6.41;85.14;100705.25;5111283;28;20023;-77
2022/12/28 02:03:36;;;;;;;3.03;0.70;;;;;;;6.37;85.27;100693.25;5100336;28;20614;-79
2022/12/28 02:06:08;;;;;;;5.53;0.70;;;;;;;6.56;85.22;100719.56;5110171;28;20050;-76
2022/12/28 02:09:13;;;;;;;4.60;0.50;;;;;;;6.53;85.46;100703.88;5106246;28;20114;-76
2022/12/28 02:11:39;;;;;;;3.57;0.50;;;;;;;6.52;85.62;100710.25;5020665;28;20538;-77
2022/12/28 02:14:06;;;;;;;5.25;0.60;;;;;;;6.33;85.35;100670.56;5078272;28;20032;-77
2022/12/28 02:16:31;;;;;;;6.00;0.60;;;;;;;6.34;85.83;100693.59;5106204;28;20116;-76
2022/12/28 02:18:57;;;;;;;3.75;0.70;;;;;;;6.21;85.89;100674.63;5103671;28;20479;-76
2022/12/28 02:21:44;;;;;;;3.00;0.40;;;;;;;6.26;86.10;100680.28;5096153;28;20036;-76
2022/12/28 02:24:47;;;;;;;3.53;0.50;;;;;;;6.15;85.91;100670.81;5103413;28;20031;-76
2022/12/28 02:27:33;;;;;;;6.53;0.60;;;;;;;6.11;86.06;100664.97;5112532;28;20034;-76
2022/12/28 02:30:16;;;;;;;2.47;0.60;;;;;;;6.05;86.19;100657.66;5087062;28;20443;-76
2022/12/28 02:33:04;;;;;;;5.97;0.45;;;;;;;5.88;86.26;100643.50;5105553;28;20032;-77
2022/12/28 02:35:32;;;;;;;4.82;0.70;;;;;;;5.94;86.51;100658.03;5113585;28;20044;-77
2022/12/28 02:38:17;;;;;;;4.70;0.60;;;;;;;5.91;86.59;100647.66;5101384;28;20029;-77
2022/12/28 02:40:48;;;;;;;4.00;0.60;;;;;;;5.87;86.40;100635.69;5108387;28;20074;-77
2022/12/28 02:43:14;;;;;;;7.72;0.63;;;;;;;5.81;86.62;100642.53;5114931;28;20032;-77
2022/12/28 02:51:29;;;;;;;5.72;0.60;;;;;;;5.61;86.77;100625.25;5114603;28;20516;-78
2022/12/28 02:57:19;;;;;;;3.13;0.60;;;;;;;5.49;86.73;100605.25;5120836;28;20038;-77
2022/12/28 02:59:52;;;;;;;4.85;0.52;;;;;;;5.34;86.89;100583.78;5102761;28;20031;-77
2022/12/28 03:02:33;;;;;;;5.53;0.85;;;;;;;5.29;87.21;100580.78;5112290;28;20027;-78
2022/12/28 03:05:12;;;;;;;5.20;0.70;;;;;;;5.42;87.53;100600.59;5113957;28;20030;-78
2022/12/28 03:08:18;;;;;;;7.85;0.82;;;;;;;5.11;87.88;100565.00;5105825;28;20039;-78
2022/12/28 03:11:09;;;;;;;9.90;0.77;;;;;;;5.16;87.99;100575.97;5112399;28;20035;-78
2022/12/28 03:13:49;;;;;;;5.57;0.88;;;;;;;5.02;88.85;100564.16;5119742;28;20028;-78
2022/12/28 03:25:41;;;;;;;4.47;0.80;;;;;;;4.74;90.00;100539.72;5113021;28;20044;-77
2022/12/28 03:33:09;;;;;;;4.10;0.82;;;;;;;4.06;97.27;100513.34;5107801;28;20043;-78
2022/12/28 03:35:57;;;;;;;5.65;0.70;;;;;;;4.16;97.68;100517.53;5115422;28;20039;-78
2022/12/28 03:38:35;;;;;;;3.03;0.68;;;;;;;4.03;97.59;100495.88;5107835;28;20110;-78
2022/12/28 03:41:18;;;;;;;4.82;0.85;;;;;;;4.01;96.87;100476.59;5106772;28;20043;-77
2022/12/28 03:43:52;;;;;;;5.03;0.80;;;;;;;4.17;96.83;100486.41;5111778;28;20028;-78
2022/12/28 03:46:29;;;;;;;;;;;;;;;3.97;98.19;100478.75;5107978;28;20035;-77
2022/12/28 03:48:58;;;;;;;5.28;0.90;;;;;;;3.84;99.24;100477.53;5106920;28;20061;-77
2022/12/28 03:51:25;;;;;;;3.95;0.77;;;;;;;3.57;99.92;100428.91;5114839;28;20027;-77
2022/12/28 03:53:50;;;;;;;4.80;0.60;;;;;;;3.81;100.00;100467.22;5101121;28;20447;-78
2022/12/28 03:56:23;;;;;;;7.05;0.80;;;;;;;3.86;100.00;100454.25;5113027;27;20020;-78
2022/12/28 03:58:48;;;;;;;5.20;0.90;;;;;;;3.96;99.03;100454.94;5111747;28;20028;-77
2022/12/28 04:01:16;;;;;;;3.67;0.70;;;;;;;3.86;100.00;100451.59;5103664;28;20031;-78
2022/12/28 04:03:42;;;;;;;3.53;0.60;;;;;;;3.87;99.09;100421.31;5115397;28;20034;-78
2022/12/28 04:06:11;;;;;;;2.60;0.60;;;;;;;3.89;100.00;100429.97;5105429;28;20031;-78
2022/12/28 04:08:37;;;;;;;3.25;0.77;;;;;;;3.74;100.00;100420.00;5108562;28;20115;-77
2022/12/28 04:11:02;;;;;;;2.03;0.45;;;;;;;3.90;100.00;100415.66;5101818;28;20097;-77
2022/12/28 04:13:32;;;;;;;4.25;0.52;;;;;;;3.77;100.00;100421.47;5081539;28;20061;-77
2022/12/28 04:16:03;;;;;;;2.85;0.65;;;;;;;3.59;100.00;100363.09;5104660;28;20048;-77
2022/12/28 04:18:32;;;;;;;1.92;0.50;;;;;;;3.87;100.00;100405.34;5111795;28;20028;-77
2022/12/28 04:20:58;;;;;;;4.20;0.80;;;;;;;3.78;100.00;100369.94;5113281;28;20520;-77
2022/12/28 04:23:29;;;;;;;2.45;0.60;;;;;;;4.01;99.80;100399.38;5103611;28;20036;-77
2022/12/28 04:26:14;;;;;;;1.58;0.55;;;;;;;3.93;100.00;100394.03;5085557;28;20031;-77
2022/12/28 04:28:43;;;;;;;;;;;;;;;3.92;100.00;100385.22;5110055;28;20024;-77
2022/12/28 04:31:11;;;;;;;2.35;0.60;;;;;;;3.90;99.54;100362.44;5113630;28;19956;-77
2022/12/28 04:33:37;;;;;;;4.95;0.65;;;;;;;3.79;99.55;100382.22;5101940;28;20442;-79
2022/12/28 04:36:09;;;;;;;2.25;0.70;;;;;;;4.04;97.66;100375.09;5112323;28;20386;-77
2022/12/28 04:38:35;;;;;;;1.90;0.47;;;;;;;3.98;98.88;100373.09;5099115;28;20091;-77
2022/12/28 04:41:01;;;;;;;2.42;0.70;;;;;;;3.80;98.61;100359.09;5093623;28;20039;-77
2022/12/28 04:43:29;;;;;;;2.55;0.50;;;;;;;4.05;97.54;100358.09;5100169;28;20028;-78
2022/12/28 04:46:00;;;;;;;2.03;0.50;;;;;;;3.80;96.06;100303.22;5113480;28;20024;-78
2022/12/28 04:48:26;;;;;;;1.33;0.50;;;;;;;4.11;96.10;100343.31;5106524;28;20487;-78
2022/12/28 04:50:53;;;;;;;3.70;1.00;;;;;;;4.00;96.77;100342.63;5107232;28;20092;-77
2022/12/28 04:53:19;;;;;;;1.20;0.55;;;;;;;4.02;96.81;100331.81;5112678;28;20080;-78
2022/12/28 04:55:45;;;;;;;2.70;0.52;;;;;;;3.79;96.21;100293.59;5101908;28;20032;-78
2022/12/28 04:58:11;;;;;;;2.15;0.73;;;;;;;3.79;97.82;100328.19;5112160;28;20088;-78
2022/12/28 05:00:36;;;;;;;1.02;0.60;;;;;;;3.61;99.58;100320.34;5108258;28;20405;-78
2022/12/28 05:03:01;;;;;;;3.42;0.55;;;;;;;3.33;98.98;100259.50;5104765;28;20028;-78
2022/12/28 05:05:35;;;;;;;0.93;0.40;;;;;;;3.60;99.38;100284.94;5115383;28;20041;-77
2022/12/28 05:08:01;;;;;;;0.90;0.30;;;;;;;3.27;100.00;100295.53;5102989;28;20079;-77
2022/12/28 05:10:27;;;;;;;1.33;0.40;;;;;;;3.14;100.00;100255.31;5092456;28;20061;-77
2022/12/28 05:12:54;;;;;;;0.82;0.38;;;;;;;3.60;100.00;100286.75;5092153;28;20031;-77
2022/12/28 05:15:19;;;;;;;2.22;0.38;;;;;;;3.66;100.00;100278.13;5102368;28;20055;-77
2022/12/28 05:17:45;;;;;;;0.93;0.43;;;;;;;3.49;100.00;100266.66;5114584;28;20486;-78
2022/12/28 05:20:10;;;;;;;0.93;0.30;;;;;;;3.33;100.00;100254.19;5103428;28;20024;-78
2022/12/28 05:22:36;;;;;;;0.57;0.22;;;;;;;3.57;100.00;100250.69;5109108;28;20032;-77
2022/12/28 05:25:01;;;;;;;0.55;0.30;;;;;;;3.21;100.00;100228.91;5093818;28;20032;-77
2022/12/28 05:27:27;;;;;;;0.73;0.32;;;;;;;3.53;100.00;100246.69;5101937;28;20031;-77
2022/12/28 05:29:52;;;;;;;1.05;0.17;;;;;;;3.01;100.00;100164.59;5114661;27;20164;-77
2022/12/28 05:32:20;;;;;;;1.95;0.30;;;;;;;3.55;100.00;100222.59;5105336;28;20031;-77
2022/12/28 05:34:46;;;;;;;0.65;0.25;;;;;;;3.75;99.40;100231.88;5073544;28;20039;-77
2022/12/28 05:37:11;;;;;;;0.47;0.10;;;;;;;3.76;98.17;100217.56;5113516;28;20031;-77
2022/12/28 05:39:37;;;;;;;0.20;0.20;;;;;;;3.52;99.81;100182.03;5101286;28;20036;-77
2022/12/28 05:42:03;;;;;;;0.65;0.30;;;;;;;3.68;99.30;100212.28;5097102;28;20086;-77
2022/12/28 05:44:29;;;;;;;0.20;0.20;;;;;;;3.58;100.00;100211.63;5106704;28;20451;-77
2022/12/28 05:46:54;;;;;;;0.20;0.10;;;;;;;3.80;98.48;100212.75;5106148;28;20040;-77
2022/12/28 05:49:20;;;;;;;0.95;0.22;;;;;;;3.57;99.10;100165.56;5115583;28;20065;-77
2022/12/28 05:51:50;;;;;;;0.30;0.20;;;;;;;3.81;97.72;100190.44;5083858;28;20043;-76
2022/12/28 05:54:16;;;;;;;0.20;0.20;;;;;;;3.45;98.19;100140.31;5112397;28;20024;-77
2022/12/28 05:56:41;;;;;;;0.57;0.38;;;;;;;3.74;98.62;100169.00;5107430;28;20034;-77
2022/12/28 05:59:07;;;;;;;0.20;0.20;;;;;;;3.61;98.94;100147.41;5104963;28;20032;-77
2022/12/28 06:01:36;;;;;;;1.38;0.40;;;;;;;3.57;98.25;100117.66;5114069;28;20031;-76
2022/12/28 06:04:14;;;;;;;0.43;0.30;;;;;;;3.76;99.22;100153.72;5102272;28;20084;-77
2022/12/28 06:06:40;;;;;;;0.20;0.20;;;;;;;3.66;98.84;100126.47;5107074;28;20032;-77
2022/12/28 06:09:05;;;;;;;1.08;0.68;;;;;;;3.91;98.21;100145.84;5110756;28;20092;-76
2022/12/28 06:11:31;;;;;;;2.00;1.70;;;;;;;4.00;96.81;100139.47;5100581;28;20449;-77
2022/12/28 06:13:57;;;;;;;0.60;0.50;;;;;;;4.05;96.25;100137.13;5096580;28;20048;-77
2022/12/28 06:16:29;;;;;;;0.98;0.70;;;;;;;3.82;98.12;100123.75;5104646;28;20111;-77
2022/12/28 06:18:55;;;;;;;0.45;0.40;;;;;;;3.21;100.00;100093.31;5117987;28;20039;-76
2022/12/28 06:21:29;;;;;;;0.82;0.52;;;;;;;3.37;100.00;100087.97;5113010;28;20043;-76
2022/12/28 06:23:56;;;;;;;1.70;0.80;;;;;;;3.62;100.00;100120.66;5083895;28;20032;-76
2022/12/28 06:26:22;;;;;;;2.00;0.70;;;;;;;3.93;99.40;100103.91;5111554;28;20459;-76
2022/12/28 06:28:49;;;;;;;1.00;0.90;;;;;;;4.10;98.05;100109.97;5108931;28;20047;-76
2022/12/28 06:31:19;;;;;;;0.60;0.50;;;;;;;3.88;98.94;100099.13;5102690;28;20059;-76
2022/12/28 06:33:46;;;;;;;0.70;0.50;;;;;;;3.98;98.90;100083.75;5114070;28;20027;-77
2022/12/28 06:36:19;;;;;;;0.88;0.60;;;;;;;4.09;98.53;100087.03;5101675;28;20027;-76
2022/12/28 06:38:45;;;;;;;2.40;0.63;;;;;;;3.83;98.08;100050.06;5107435;28;20055;-77
2022/12/28 06:41:12;;;;;;;1.60;0.60;;;;;;;4.12;97.34;100076.03;5109385;28;20035;-77
2022/12/28 06:43:39;;;;;;;3.20;0.50;;;;;;;3.96;97.55;100053.00;5098711;28;20123;-77
2022/12/28 06:46:05;;;;;;;0.50;0.50;;;;;;;4.16;97.41;100067.50;5115327;28;20031;-78
2022/12/28 06:48:32;;;;;;;1.70;0.90;;;;;;;3.92;98.16;100041.88;5088580;28;20040;-77
2022/12/28 06:51:00;;;;;;;0.90;0.55;;;;;;;3.96;98.87;100058.31;5091847;28;20042;-78
2022/12/28 06:53:28;;;;;;;2.03;0.90;;;;;;;4.06;97.76;100048.28;5101845;28;20028;-78
2022/12/28 06:55:58;;;;;;;1.05;0.68;;;;;;;4.19;97.01;100051.19;5115076;28;20389;-78
2022/12/28 06:58:25;;;;;;;2.00;0.95;;;;;;;3.62;98.90;99976.19;5106306;28;20455;-79
2022/12/28 07:00:51;;;;;;;1.33;0.93;;;;;;;4.13;97.92;100038.56;5107572;28;20032;-79
2022/12/28 07:03:16;;;;;;;3.88;1.45;;;;;;;4.21;98.74;100046.53;5110948;28;20135;-79
2022/12/28 07:05:42;;;;;;;1.10;1.00;;;;;;;4.13;99.21;100046.56;5101165;28;20032;-78
2022/12/28 07:08:08;;;;;;;3.25;1.30;;;;;;;4.03;99.93;100043.28;5093986;28;20050;-78
2022/12/28 07:10:34;;;;;;;2.67;1.30;;;;;;;4.26;99.26;100040.66;5104571;28;20192;-79
2022/12/28 07:13:02;;;;;;;2.10;1.20;;;;;;;4.31;98.31;100034.81;5104194;28;20554;-79
2022/12/28 07:15:27;;;;;;;2.33;1.15;;;;;;;4.25;97.62;100015.03;5111225;28;20407;-79
2022/12/28 07:17:53;;;;;;;3.38;1.55;;;;;;;4.30;98.68;100028.66;5081253;28;20026;-80
2022/12/28 07:20:18;;;;;;;4.93;1.60;;;;;;;4.14;98.91;100008.31;5091813;28;20169;-80
2022/12/28 07:22:43;;;;;;;4.78;1.52;;;;;;;4.45;97.66;100020.72;5088915;28;20035;-80
2022/12/28 07:25:12;;;;;;;4.43;1.77;;;;;;;4.56;97.52;100016.81;5088393;28;20032;-80
2022/12/28 07:27:38;;;;;;;2.97;1.50;;;;;;;4.38;96.85;99990.47;5115769;28;20035;-80
2022/12/28 07:30:04;;;;;;;3.80;1.80;;;;;;;4.32;99.51;100010.66;5087366;28;20383;-81
2022/12/28 07:32:29;;;;;;;3.90;1.88;;;;;;;4.37;97.80;99986.16;5111604;28;20039;-81
2022/12/28 07:34:55;;;;;;;3.15;1.58;;;;;;;4.34;98.03;99976.69;5082466;28;20047;-81
2022/12/28 07:37:20;;;;;;;3.83;1.65;;;;;;;4.13;99.67;99982.66;5115711;28;20064;-81
2022/12/28 07:39:45;;;;;;;3.30;1.90;;;;;;;4.21;98.47;99963.16;5085764;28;20036;-81
2022/12/28 07:42:11;;;;;;;5.15;2.38;;;;;;;4.25;98.15;99951.13;5097985;28;20038;-81
2022/12/28 07:44:40;;;;;;;5.03;2.92;;;;;;;4.42;97.94;99975.78;5108550;28;20034;-81
2022/12/28 07:47:06;;;;;;;5.00;2.20;;;;;;;4.43;98.02;99980.94;5101293;28;20043;-82
2022/12/28 07:49:31;;;;;;;6.60;2.65;;;;;;;4.31;99.68;99976.22;5115377;28;20023;-82
2022/12/28 07:51:57;;;;;;;5.38;2.85;;;;;;;4.47;98.81;99970.78;5086714;28;20028;-82
2022/12/28 07:54:22;;;;;;;6.53;2.75;;;;;;;4.44;98.23;99947.97;5094780;28;20035;-81
2022/12/28 07:56:48;;;;;;;4.45;1.90;;;;;;;4.27;98.38;99932.31;5111122;28;20031;-82
2022/12/28 07:59:13;;;;;;;4.50;1.70;;;;;;;4.34;99.44;99965.19;5089593;28;20062;-82
2022/12/28 08:01:39;;;;;;;3.40;1.92;;;;;;;4.39;99.39;99957.50;5118492;28;20171;-82
2022/12/28 08:04:07;;;;;;;4.15;2.10;;;;;;;4.35;100.00;99949.06;5099582;28;20028;-82
2022/12/28 08:06:35;;;;;;;5.55;2.00;;;;;;;4.50;100.00;99945.59;5101003;28;20453;-82
2022/12/28 08:09:05;;;;;;;5.38;2.08;;;;;;;4.55;99.53;99944.03;5112892;28;20038;-81
2022/12/28 08:11:32;;;;;;;5.43;1.60;;;;;;;4.27;100.00;99938.44;5121847;28;20397;-81
2022/12/28 08:13:58;;;;;;;7.80;2.28;;;;;;;4.17;100.00;99885.47;5063074;28;20070;-82
2022/12/28 08:16:27;;;;;;;4.60;1.88;;;;;;;4.52;100.00;99939.06;5078984;28;20119;-82
2022/12/28 08:18:54;;;;;;;3.47;1.88;;;;;;;3.85;100.00;99803.25;5110343;28;20048;-82
2022/12/28 08:21:34;;;;;;;4.28;2.05;;;;;;;4.54;100.00;99929.06;5118884;28;20027;-82
2022/12/28 08:24:01;;;;;;;4.35;2.00;;;;;;;4.67;99.54;99905.28;5118784;28;20512;-82
2022/12/28 08:26:31;;;;;;;3.67;2.20;;;;;;;4.89;99.20;99930.19;5105700;28;20024;-82
2022/12/28 08:29:00;;;;;;;6.80;2.20;;;;;;;4.58;98.27;99870.94;5109658;28;20023;-82
2022/12/28 08:31:28;;;;;;;5.03;2.30;;;;;;;4.58;98.93;99869.09;5105190;28;20028;-82
2022/12/28 08:33:55;;;;;;;7.18;2.30;;;;;;;5.05;97.87;99915.84;5100422;28;20027;-82
2022/12/28 08:36:21;;;;;;;7.75;2.38;;;;;;;4.93;98.64;99919.97;5104196;28;20040;-81
2022/12/28 08:38:47;;;;;;;5.93;2.08;;;;;;;5.00;98.27;99910.25;5069517;28;20089;-82
2022/12/28 08:41:15;;;;;;;6.88;1.73;;;;;;;5.01;98.75;99909.25;5099337;28;20024;-81
2022/12/28 08:43:42;;;;;;;8.55;2.13;;;;;;;4.95;99.24;99896.66;5098574;28;20505;-81
2022/12/28 08:46:19;;;;;;;6.85;2.00;;;;;;;4.90;100.00;99902.53;5082142;28;20028;-81
2022/12/28 08:48:46;;;;;;;4.68;1.65;;;;;;;4.97;99.96;99891.97;5092088;28;20084;-80
2022/12/28 08:51:18;;;;;;;7.18;2.20;;;;;;;4.88;99.71;99861.91;5097132;28;20437;-81
2022/12/28 08:53:44;;;;;;;5.10;2.08;;;;;;;5.03;99.50;99883.19;5099289;28;20394;-80
2022/12/28 08:56:12;;;;;;;5.18;3.00;;;;;;;5.00;100.00;99875.59;5100289;28;20024;-81
2022/12/28 08:58:40;;;;;;;6.72;3.42;;;;;;;5.10;100.00;99886.81;5097479;28;20061;-81
2022/12/28 09:01:14;;;;;;;11.13;3.25;;;;;;;4.72;99.38;99803.47;5098366;28;20425;-80
2022/12/28 09:03:42;;;;;;;7.70;2.28;;;;;;;5.04;99.27;99858.22;5098514;28;20086;-80
2022/12/28 09:06:10;;;;;;;5.38;2.03;;;;;;;5.14;99.60;99887.25;5101493;28;20035;-80
2022/12/28 09:08:36;;;;;;;3.00;1.80;;;;;;;5.16;99.95;99880.69;5107638;28;20055;-80
2022/12/28 09:11:08;;;;;;;4.82;1.90;;;;;;;5.10;100.00;99869.94;5104114;28;20097;-80
2022/12/28 09:13:34;;;;;;;2.30;1.65;;;;;;;5.15;99.90;99873.72;5114910;28;20098;-80
2022/12/28 09:16:03;;;;;;;3.15;1.73;;;;;;;5.14;99.62;99860.59;5096419;28;20415;-80
2022/12/28 09:18:29;;;;;;;4.95;1.63;;;;;;;5.12;99.89;99862.59;5100131;28;20135;-79
2022/12/28 09:20:55;;;;;;;4.68;2.00;;;;;;;4.86;100.00;99841.78;5082065;28;20027;-78
2022/12/28 09:23:21;;;;;;;3.38;2.00;;;;;;;5.03;100.00;99843.22;5104656;28;20043;-76
2022/12/28 09:25:46;;;;;;;5.88;1.90;;;;;;;4.78;100.00;99832.03;5101521;28;20032;-75
2022/12/28 09:28:12;;;;;;;2.35;1.75;;;;;;;4.90;100.00;99827.91;5111565;28;20045;-76
2022/12/28 09:30:38;;;;;;;3.72;1.80;;;;;;;4.61;100.00;99799.44;5106685;28;20031;-78
2022/12/28 09:35:50;;;;;;;2.63;1.50;;;;;;;5.15;99.98;99825.72;5115623;28;20075;-76
2022/12/28 09:38:15;;;;;;;2.38;1.33;;;;;;;5.08;99.23;99805.34;5084976;28;20130;-77
2022/12/28 09:40:41;;;;;;;3.67;1.30;;;;;;;5.14;99.91;99817.94;5090143;28;20043;-76
2022/12/28 09:43:11;;;;;;;2.00;1.40;;;;;;;5.16;99.74;99802.53;5082908;28;20028;-76
2022/12/28 09:45:37;;;;;;;1.25;1.00;;;;;;;5.19;99.29;99789.66;5103043;28;20035;-75
2022/12/28 09:48:12;;;;;;;2.15;1.10;;;;;;;5.35;98.99;99811.78;5100184;28;20111;-74
2022/12/28 09:50:37;;;;;;;2.33;1.02;;;;;;;5.30;99.24;99799.03;5107561;28;20452;-71
2022/12/28 09:53:25;;;;;;;2.38;1.08;;;;;;;5.30;99.62;99800.88;5108679;28;20051;-73
2022/12/28 09:56:02;;;;;;;2.17;0.93;;;;;;;5.24;99.23;99778.44;5101159;28;20062;-73
2022/12/28 09:58:29;;;;;;;3.05;1.27;;;;;;;5.40;99.24;99801.38;5103147;28;20027;-77
2022/12/28 10:00:57;;;;;;;3.00;1.00;;;;;;;5.25;99.18;99773.94;5107045;28;20153;-75
2022/12/28 10:03:33;;;;;;;3.13;1.30;;;;;;;5.30;99.05;99768.88;5110472;28;20436;-75
2022/12/28 10:05:59;;;;;;;3.05;1.10;;;;;;;5.43;99.56;99785.00;5099712;28;20056;-73
2022/12/28 10:08:26;;;;;;;1.70;1.15;;;;;;;5.38;99.84;99782.88;5108436;28;20043;-74
2022/12/28 10:10:54;;;;;;;3.65;1.40;;;;;;;5.44;99.42;99786.63;5107204;28;20036;-74
2022/12/28 10:13:25;;;;;;;3.78;1.23;;;;;;;5.46;100.00;99781.91;5103433;28;20483;-75
2022/12/28 10:15:51;;;;;;;1.85;1.10;;;;;;;5.45;99.87;99769.59;5113339;28;20048;-77
2022/12/28 10:18:27;;;;;;;1.90;1.20;;;;;;;5.49;99.38;99762.84;5111141;28;20053;-76
2022/12/28 10:20:54;;;;;;;1.73;1.00;;;;;;;5.16;99.22;99711.88;5110763;28;20054;-75
2022/12/28 10:23:24;;;;;;;1.75;1.30;;;;;;;5.37;99.63;99745.75;5102362;28;20036;-75
2022/12/28 10:25:53;;;;;;;3.40;1.35;;;;;;;5.37;100.00;99743.06;5112256;28;20107;-74
2022/12/28 10:28:21;;;;;;;2.45;1.35;;;;;;;5.47;99.70;99746.25;5096387;28;20498;-74
2022/12/28 10:31:03;;;;;;;1.88;1.40;;;;;;;5.60;99.67;99753.53;5105319;28;20031;-75
2022/12/28 10:33:28;;;;;;;3.92;1.35;;;;;;;5.54;99.53;99743.63;5109467;28;20407;-73
2022/12/28 10:35:54;;;;;;;3.92;1.70;;;;;;;5.52;99.39;99735.78;5099818;28;20020;-75
2022/12/28 10:38:21;;;;;;;1.50;1.35;;;;;;;5.65;99.48;99745.75;5110736;28;20055;-74
2022/12/28 10:40:59;;;;;;;4.22;1.40;;;;;;;5.63;99.52;99740.63;5106836;28;20117;-74
2022/12/28 10:43:32;;;;;;;2.30;1.33;;;;;;;5.62;99.75;99735.47;5102147;28;20066;-74
2022/12/28 10:45:59;;;;;;;1.83;1.33;;;;;;;5.69;99.63;99735.53;5098585;28;20079;-74
2022/12/28 10:48:31;;;;;;;1.50;1.10;;;;;;;5.60;99.63;99710.84;5105206;28;20028;-74
2022/12/28 10:51:09;;;;;;;3.42;1.50;;;;;;;5.73;99.05;99731.44;5112198;28;20028;-74
2022/12/28 10:53:38;;;;;;;4.88;1.45;;;;;;;5.77;99.01;99732.72;5097338;28;20102;-74
2022/12/28 10:56:12;;;;;;;2.35;1.40;;;;;;;5.76;98.98;99723.03;5083398;28;20051;-74
2022/12/28 10:58:44;;;;;;;5.22;1.70;;;;;;;5.74;99.25;99727.78;5111512;28;20024;-76
2022/12/28 11:01:12;;;;;;;1.85;1.60;;;;;;;5.74;99.14;99727.78;5110015;28;20033;-74
2022/12/28 11:03:56;;;;;;;3.55;1.85;;;;;;;5.58;100.00;99718.19;5102527;28;20070;-74
2022/12/28 11:06:24;;;;;;;3.00;1.80;;;;;;;5.59;100.00;99703.81;5094773;28;20028;-74
2022/12/28 11:09:05;;;;;;;3.85;1.80;;;;;;;5.75;99.51;99706.22;5103314;28;20031;-74
2022/12/28 11:11:31;;;;;;;3.72;1.85;;;;;;;5.76;99.42;99704.34;5096595;28;20044;-74
2022/12/28 11:14:16;;;;;;;2.33;1.80;;;;;;;5.73;99.54;99699.41;5102307;28;20020;-74
2022/12/28 11:16:42;;;;;;;5.00;1.90;;;;;;;5.73;99.92;99700.25;5112260;28;20414;-68
2022/12/28 11:19:09;;;;;;;4.55;2.00;;;;;;;5.78;99.89;99705.00;5095868;28;20374;-68
2022/12/28 11:21:35;;;;;;;4.88;1.70;;;;;;;5.74;99.40;99685.06;5104449;28;20105;-68
2022/12/28 11:24:02;;;;;;;4.05;1.65;;;;;;;5.59;100.00;99672.63;5117482;28;20425;-69
2022/12/28 11:26:28;;;;;;;3.55;1.88;;;;;;;5.82;100.00;99690.25;5107913;28;20035;-68
2022/12/28 11:28:54;;;;;;;2.58;1.75;;;;;;;5.78;100.00;99679.13;5114943;28;20482;-67
2022/12/28 11:31:42;;;;;;;4.68;2.10;;;;;;;5.80;99.73;99679.78;5106821;28;20032;-67
2022/12/28 11:34:18;;;;;;;4.32;1.88;;;;;;;5.89;99.58;99688.44;5115014;27;20478;-68
2022/12/28 11:36:45;;;;;;;3.40;1.83;;;;;;;5.72;100.00;99682.56;5109326;28;20461;-67
2022/12/28 11:39:22;;;;;;;3.50;1.73;;;;;;;5.86;100.00;99678.13;5121975;28;20039;-66
2022/12/28 11:41:49;;;;;;;3.55;1.60;;;;;;;5.70;100.00;99646.44;5104484;28;20935;-67
2022/12/28 11:44:42;;;;;;;3.47;2.00;;;;;;;5.87;100.00;99666.47;5102209;28;20039;-68
2022/12/28 11:47:14;;;;;;;5.78;1.95;;;;;;;6.00;100.00;99665.75;5113156;28;20084;-69
2022/12/28 11:49:44;;;;;;;3.65;2.00;;;;;;;6.02;99.50;99661.84;5103709;28;20028;-66
2022/12/28 11:52:15;;;;;;;4.53;1.77;;;;;;;6.02;99.99;99653.00;5102806;28;20494;-69
2022/12/28 11:55:25;;;;;;;3.40;2.08;;;;;;;6.13;99.77;99657.00;5100864;28;20028;-67
2022/12/28 11:57:53;;;;;;;6.22;2.22;;;;;;;6.17;99.57;99652.88;5050000;28;20044;-67
2022/12/28 12:00:18;;;;;;;5.30;1.67;;;;;;;6.14;99.63;99651.44;5097982;28;20104;-67
2022/12/28 12:02:56;;;;;;;3.85;1.88;;;;;;;6.20;100.00;99652.50;5102931;28;20039;-67
2022/12/28 12:05:36;;;;;;;3.58;2.03;;;;;;;6.27;99.43;99651.50;5100540;28;20081;-67
2022/12/28 12:08:11;;;;;;;2.38;2.00;;;;;;;6.24;100.00;99646.53;5103527;28;20028;-71
2022/12/28 12:10:38;;;;;;;4.35;2.17;;;;;;;6.32;100.00;99648.22;5102626;28;20028;-67